createdAt,value
2017-07-18T00:00:12.311Z,0
2017-07-18T00:00:53.205Z,0
2017-07-18T00:01:34.096Z,0
2017-07-18T00:02:14.993Z,0
2017-07-18T00:02:55.884Z,0
2017-07-18T00:03:36.780Z,0
2017-07-18T00:04:17.672Z,0
2017-07-18T00:04:58.561Z,0
2017-07-18T00:05:39.451Z,0
2017-07-18T00:06:20.363Z,0
2017-07-18T00:07:01.241Z,0
2017-07-18T00:07:42.134Z,0
2017-07-18T00:08:23.027Z,0
2017-07-18T00:09:03.921Z,0
2017-07-18T00:09:44.811Z,0
2017-07-18T00:10:25.704Z,0
2017-07-18T00:11:06.592Z,0
2017-07-18T00:11:47.490Z,0
2017-07-18T00:12:28.379Z,0
2017-07-18T00:13:09.265Z,0
2017-07-18T00:13:50.161Z,0
2017-07-18T00:14:31.058Z,0
2017-07-18T00:15:11.957Z,0
2017-07-18T00:15:52.846Z,0
2017-07-18T00:16:33.744Z,0
2017-07-18T00:17:14.625Z,0
2017-07-18T00:17:55.519Z,0
2017-07-18T00:18:36.411Z,0
2017-07-18T00:19:17.297Z,0
2017-07-18T00:19:58.190Z,0
2017-07-18T00:20:39.100Z,0
2017-07-18T00:21:20.015Z,0
2017-07-18T00:22:00.897Z,0
2017-07-18T00:22:41.835Z,0
2017-07-18T00:23:22.684Z,0
2017-07-18T00:24:03.572Z,0
2017-07-18T00:24:44.464Z,0
2017-07-18T00:25:25.383Z,0
2017-07-18T00:26:06.274Z,0
2017-07-18T00:26:47.166Z,0
2017-07-18T00:27:28.058Z,0
2017-07-18T00:28:08.947Z,0
2017-07-18T00:28:49.829Z,0
2017-07-18T00:29:30.734Z,0
2017-07-18T00:30:11.626Z,0
2017-07-18T00:30:52.519Z,0
2017-07-18T00:31:33.398Z,0
2017-07-18T00:32:14.291Z,0
2017-07-18T00:32:55.184Z,0
2017-07-18T00:33:36.068Z,0
2017-07-18T00:34:16.951Z,0
2017-07-18T00:34:57.866Z,0
2017-07-18T00:35:38.759Z,0
2017-07-18T00:36:19.651Z,0
2017-07-18T00:37:00.538Z,0
2017-07-18T00:37:41.442Z,0
2017-07-18T00:38:22.327Z,0
2017-07-18T00:39:03.220Z,0
2017-07-18T00:39:44.100Z,0
2017-07-18T00:40:24.991Z,0
2017-07-18T00:41:05.883Z,0
2017-07-18T00:41:46.778Z,0
2017-07-18T00:42:27.681Z,0
2017-07-18T00:43:08.569Z,0
2017-07-18T00:43:49.461Z,0
2017-07-18T00:44:30.356Z,0
2017-07-18T00:45:11.240Z,0
2017-07-18T00:45:52.128Z,0
2017-07-18T00:46:33.023Z,0
2017-07-18T00:47:13.918Z,0
2017-07-18T00:47:54.804Z,0
2017-07-18T00:48:35.738Z,0
2017-07-18T00:49:16.583Z,0
2017-07-18T00:49:57.469Z,0
2017-07-18T00:50:38.355Z,0
2017-07-18T00:51:19.261Z,0
2017-07-18T00:52:00.157Z,0
2017-07-18T00:52:41.052Z,0
2017-07-18T00:53:21.941Z,0
2017-07-18T00:54:02.830Z,0
2017-07-18T00:54:43.711Z,0
2017-07-18T00:55:24.603Z,0
2017-07-18T00:56:05.509Z,0
2017-07-18T00:56:46.389Z,0
2017-07-18T00:57:27.285Z,0
2017-07-18T00:58:08.182Z,0
2017-07-18T00:58:49.072Z,0
2017-07-18T00:59:29.968Z,0
2017-07-18T01:00:10.855Z,0
2017-07-18T01:00:51.757Z,0
2017-07-18T01:01:32.647Z,0
2017-07-18T01:02:13.533Z,0
2017-07-18T01:02:54.443Z,0
2017-07-18T01:03:35.329Z,0
2017-07-18T01:04:16.240Z,0
2017-07-18T01:04:57.111Z,0
2017-07-18T01:05:38.004Z,0
2017-07-18T01:06:18.894Z,0
2017-07-18T01:06:59.787Z,0
2017-07-18T01:07:40.679Z,0
2017-07-18T01:08:21.563Z,0
2017-07-18T01:09:02.451Z,0
2017-07-18T01:09:43.348Z,0
2017-07-18T01:10:24.229Z,0
2017-07-18T01:11:05.121Z,0
2017-07-18T01:11:46.023Z,0
2017-07-18T01:12:26.926Z,0
2017-07-18T01:13:07.801Z,0
2017-07-18T01:13:48.700Z,0
2017-07-18T01:14:29.586Z,0
2017-07-18T01:15:10.480Z,0
2017-07-18T01:15:51.360Z,0
2017-07-18T01:16:32.258Z,0
2017-07-18T01:17:13.143Z,0
2017-07-18T01:17:54.032Z,0
2017-07-18T01:18:34.918Z,0
2017-07-18T01:19:15.804Z,0
2017-07-18T01:19:56.693Z,0
2017-07-18T01:20:37.583Z,0
2017-07-18T01:21:18.480Z,0
2017-07-18T01:21:59.385Z,0
2017-07-18T01:22:40.279Z,0
2017-07-18T01:23:21.162Z,0
2017-07-18T01:24:02.052Z,0
2017-07-18T01:24:42.943Z,0
2017-07-18T01:25:23.822Z,0
2017-07-18T01:26:04.706Z,0
2017-07-18T01:26:45.610Z,0
2017-07-18T01:27:26.501Z,0
2017-07-18T01:28:07.379Z,0
2017-07-18T01:28:48.272Z,0
2017-07-18T01:29:29.165Z,0
2017-07-18T01:30:10.053Z,0
2017-07-18T01:30:50.955Z,0
2017-07-18T01:31:31.845Z,0
2017-07-18T01:32:12.755Z,0
2017-07-18T01:32:53.652Z,0
2017-07-18T01:33:34.544Z,0
2017-07-18T01:34:15.462Z,0
2017-07-18T01:34:56.358Z,0
2017-07-18T01:35:37.260Z,0
2017-07-18T01:36:18.156Z,0
2017-07-18T01:36:59.049Z,0
2017-07-18T01:37:39.942Z,0
2017-07-18T01:38:20.838Z,0
2017-07-18T01:39:01.728Z,0
2017-07-18T01:39:42.626Z,0
2017-07-18T01:40:23.516Z,0
2017-07-18T01:41:04.415Z,0
2017-07-18T01:41:45.309Z,0
2017-07-18T01:42:26.203Z,0
2017-07-18T01:43:07.088Z,0
2017-07-18T01:43:47.985Z,0
2017-07-18T01:44:28.871Z,0
2017-07-18T01:45:09.765Z,0
2017-07-18T01:45:50.661Z,0
2017-07-18T01:46:31.552Z,0
2017-07-18T01:47:12.444Z,0
2017-07-18T01:47:53.333Z,0
2017-07-18T01:48:34.220Z,0
2017-07-18T01:49:15.108Z,0
2017-07-18T01:49:56.005Z,0
2017-07-18T01:50:36.892Z,0
2017-07-18T01:51:17.775Z,0
2017-07-18T01:51:58.659Z,0
2017-07-18T01:52:39.559Z,0
2017-07-18T01:53:20.443Z,0
2017-07-18T01:54:01.335Z,0
2017-07-18T01:54:42.232Z,0
2017-07-18T01:55:23.125Z,0
2017-07-18T01:56:04.001Z,0
2017-07-18T01:56:44.893Z,0
2017-07-18T01:57:25.777Z,0
2017-07-18T01:58:06.665Z,0
2017-07-18T01:58:47.571Z,0
2017-07-18T01:59:28.450Z,0
2017-07-18T02:00:09.336Z,0
2017-07-18T02:00:50.224Z,0
2017-07-18T02:01:31.119Z,0
2017-07-18T02:02:12.004Z,0
2017-07-18T02:02:52.894Z,0
2017-07-18T02:03:33.797Z,0
2017-07-18T02:04:14.685Z,0
2017-07-18T02:04:55.574Z,0
2017-07-18T02:05:36.468Z,0
2017-07-18T02:06:17.357Z,0
2017-07-18T02:06:58.240Z,0
2017-07-18T02:07:39.128Z,0
2017-07-18T02:08:20.014Z,0
2017-07-18T02:09:00.898Z,0
2017-07-18T02:09:41.781Z,0
2017-07-18T02:10:22.662Z,0
2017-07-18T02:11:03.553Z,0
2017-07-18T02:11:44.428Z,0
2017-07-18T02:12:25.308Z,0
2017-07-18T02:13:06.199Z,0
2017-07-18T02:13:47.084Z,0
2017-07-18T02:14:27.973Z,0
2017-07-18T02:15:08.878Z,0
2017-07-18T02:15:49.757Z,0
2017-07-18T02:16:30.644Z,0
2017-07-18T02:17:11.530Z,0
2017-07-18T02:17:52.420Z,0
2017-07-18T02:18:33.320Z,0
2017-07-18T02:19:14.202Z,0
2017-07-18T02:19:55.107Z,0
2017-07-18T02:20:35.977Z,0
2017-07-18T02:21:16.861Z,0
2017-07-18T02:21:57.752Z,0
2017-07-18T02:22:38.642Z,0
2017-07-18T02:23:19.534Z,0
2017-07-18T02:24:00.415Z,0
2017-07-18T02:24:41.305Z,0
2017-07-18T02:25:22.212Z,0
2017-07-18T02:26:03.087Z,0
2017-07-18T02:26:43.984Z,0
2017-07-18T02:27:24.863Z,0
2017-07-18T02:28:05.757Z,0
2017-07-18T02:28:46.644Z,0
2017-07-18T02:29:27.536Z,0
2017-07-18T02:30:08.431Z,0
2017-07-18T02:30:49.327Z,0
2017-07-18T02:31:30.202Z,0
2017-07-18T02:32:11.095Z,0
2017-07-18T02:32:51.994Z,0
2017-07-18T02:33:32.879Z,0
2017-07-18T02:34:13.763Z,0
2017-07-18T02:34:54.670Z,0
2017-07-18T02:35:35.560Z,0
2017-07-18T02:36:16.453Z,0
2017-07-18T02:36:57.349Z,0
2017-07-18T02:37:38.247Z,0
2017-07-18T02:38:19.133Z,0
2017-07-18T02:39:00.032Z,0
2017-07-18T02:39:40.916Z,0
2017-07-18T02:40:21.812Z,0
2017-07-18T02:41:02.706Z,0
2017-07-18T02:41:43.595Z,0
2017-07-18T02:42:24.480Z,0
2017-07-18T02:43:05.371Z,0
2017-07-18T02:43:46.258Z,0
2017-07-18T02:44:27.149Z,0
2017-07-18T02:45:08.043Z,0
2017-07-18T02:45:48.928Z,0
2017-07-18T02:46:29.825Z,0
2017-07-18T02:47:10.710Z,0
2017-07-18T02:47:51.609Z,0
2017-07-18T02:48:32.481Z,0
2017-07-18T02:49:13.372Z,0
2017-07-18T02:49:54.258Z,0
2017-07-18T02:50:35.144Z,0
2017-07-18T02:51:16.034Z,0
2017-07-18T02:51:56.923Z,0
2017-07-18T02:52:37.807Z,0
2017-07-18T02:53:18.685Z,0
2017-07-18T02:53:59.582Z,0
2017-07-18T02:54:40.465Z,0
2017-07-18T02:55:21.343Z,0
2017-07-18T02:56:02.225Z,0
2017-07-18T02:56:43.136Z,0
2017-07-18T02:57:24.012Z,0
2017-07-18T02:58:04.879Z,0
2017-07-18T02:58:45.760Z,0
2017-07-18T02:59:26.649Z,0
2017-07-18T03:00:07.571Z,5
2017-07-18T03:00:48.458Z,5
2017-07-18T03:01:29.349Z,5
2017-07-18T03:02:10.228Z,5
2017-07-18T03:02:51.108Z,5
2017-07-18T03:03:31.995Z,5
2017-07-18T03:04:12.877Z,5
2017-07-18T03:04:53.768Z,5
2017-07-18T03:05:34.657Z,5
2017-07-18T03:06:15.534Z,5
2017-07-18T03:06:56.430Z,5
2017-07-18T03:07:37.321Z,5
2017-07-18T03:08:18.211Z,5
2017-07-18T03:08:59.089Z,5
2017-07-18T03:09:39.974Z,5
2017-07-18T03:10:20.859Z,10
2017-07-18T03:11:01.747Z,10
2017-07-18T03:11:42.639Z,10
2017-07-18T03:12:23.528Z,10
2017-07-18T03:13:04.412Z,10
2017-07-18T03:13:45.299Z,10
2017-07-18T03:14:26.185Z,10
2017-07-18T03:15:07.066Z,10
2017-07-18T03:15:47.952Z,10
2017-07-18T03:16:28.855Z,10
2017-07-18T03:17:09.741Z,10
2017-07-18T03:17:50.625Z,15
2017-07-18T03:18:31.508Z,15
2017-07-18T03:19:12.409Z,15
2017-07-18T03:19:53.281Z,15
2017-07-18T03:20:34.167Z,15
2017-07-18T03:21:15.066Z,15
2017-07-18T03:21:55.950Z,15
2017-07-18T03:22:36.838Z,15
2017-07-18T03:23:17.743Z,15
2017-07-18T03:23:58.629Z,20
2017-07-18T03:24:39.521Z,20
2017-07-18T03:25:20.415Z,20
2017-07-18T03:26:01.312Z,20
2017-07-18T03:26:42.191Z,20
2017-07-18T03:27:23.070Z,20
2017-07-18T03:28:03.970Z,20
2017-07-18T03:28:44.863Z,20
2017-07-18T03:29:25.748Z,25
2017-07-18T03:30:06.647Z,25
2017-07-18T03:30:47.523Z,25
2017-07-18T03:31:28.419Z,25
2017-07-18T03:32:09.304Z,25
2017-07-18T03:32:50.185Z,25
2017-07-18T03:33:31.073Z,25
2017-07-18T03:34:11.970Z,30
2017-07-18T03:34:52.859Z,30
2017-07-18T03:35:33.753Z,30
2017-07-18T03:36:14.647Z,30
2017-07-18T03:36:55.540Z,30
2017-07-18T03:37:36.424Z,30
2017-07-18T03:38:17.328Z,30
2017-07-18T03:38:58.217Z,30
2017-07-18T03:39:39.099Z,35
2017-07-18T03:40:19.980Z,35
2017-07-18T03:41:00.877Z,35
2017-07-18T03:41:41.749Z,35
2017-07-18T03:42:22.643Z,35
2017-07-18T03:43:03.519Z,35
2017-07-18T03:43:44.414Z,35
2017-07-18T03:44:25.303Z,40
2017-07-18T03:45:06.189Z,40
2017-07-18T03:45:47.073Z,40
2017-07-18T03:46:27.981Z,40
2017-07-18T03:47:08.869Z,40
2017-07-18T03:49:18.009Z,45
2017-07-18T03:49:58.897Z,45
2017-07-18T03:50:39.792Z,45
2017-07-18T03:51:20.687Z,45
2017-07-18T03:52:01.576Z,45
2017-07-18T03:52:42.467Z,45
2017-07-18T03:53:23.349Z,45
2017-07-18T03:54:04.245Z,50
2017-07-18T03:54:45.138Z,50
2017-07-18T03:55:26.029Z,50
2017-07-18T03:56:06.915Z,50
2017-07-18T03:56:47.806Z,50
2017-07-18T03:57:28.689Z,50
2017-07-18T03:58:09.576Z,55
2017-07-18T03:58:50.465Z,55
2017-07-18T03:59:33.033Z,55
2017-07-18T04:00:13.926Z,55
2017-07-18T04:00:54.824Z,55
2017-07-18T04:01:35.740Z,55
2017-07-18T04:02:16.630Z,55
2017-07-18T04:02:57.520Z,60
2017-07-18T04:03:38.412Z,60
2017-07-18T04:04:19.292Z,60
2017-07-18T04:05:00.184Z,60
2017-07-18T04:05:41.077Z,60
2017-07-18T04:06:21.965Z,60
2017-07-18T04:07:02.857Z,60
2017-07-18T04:07:43.750Z,65
2017-07-18T04:08:24.700Z,65
2017-07-18T04:09:05.580Z,65
2017-07-18T04:09:46.466Z,65
2017-07-18T04:10:27.361Z,65
2017-07-18T04:11:08.249Z,65
2017-07-18T04:11:49.132Z,65
2017-07-18T04:12:30.034Z,70
2017-07-18T04:13:10.918Z,70
2017-07-18T04:13:51.802Z,70
2017-07-18T04:14:32.692Z,70
2017-07-18T04:15:13.575Z,70
2017-07-18T04:15:54.455Z,70
2017-07-18T04:16:35.342Z,70
2017-07-18T04:17:16.244Z,75
2017-07-18T04:17:57.128Z,75
2017-07-18T04:18:38.020Z,75
2017-07-18T04:19:18.912Z,75
2017-07-18T04:19:59.801Z,75
2017-07-18T04:20:40.694Z,75
2017-07-18T04:21:21.576Z,75
2017-07-18T04:22:02.463Z,80
2017-07-18T04:22:43.370Z,80
2017-07-18T04:23:24.275Z,80
2017-07-18T04:24:05.156Z,80
2017-07-18T04:24:46.044Z,80
2017-07-18T04:25:26.936Z,80
2017-07-18T04:26:07.834Z,80
2017-07-18T04:26:48.727Z,85
2017-07-18T04:27:29.620Z,85
2017-07-18T04:28:10.509Z,85
2017-07-18T04:28:51.396Z,85
2017-07-18T04:29:32.280Z,85
2017-07-18T04:30:13.167Z,85
2017-07-18T04:30:54.052Z,85
2017-07-18T04:31:34.943Z,90
2017-07-18T04:32:15.830Z,90
2017-07-18T04:32:56.719Z,90
2017-07-18T04:33:37.605Z,90
2017-07-18T04:34:19.046Z,90
2017-07-18T04:34:59.936Z,90
2017-07-18T04:35:42.330Z,95
2017-07-18T04:36:23.214Z,95
2017-07-18T04:37:04.105Z,95
2017-07-18T04:37:45.008Z,95
2017-07-18T04:38:25.892Z,95
2017-07-18T04:39:06.776Z,95
2017-07-18T04:39:47.677Z,95
2017-07-18T04:40:28.567Z,100
2017-07-18T04:41:09.471Z,100
2017-07-18T04:41:50.354Z,100
2017-07-18T04:42:34.853Z,100
2017-07-18T04:43:15.738Z,100
2017-07-18T04:43:56.629Z,100
2017-07-18T04:44:37.526Z,105
2017-07-18T04:45:20.073Z,105
2017-07-18T04:46:00.984Z,105
2017-07-18T04:46:41.866Z,105
2017-07-18T04:47:24.342Z,105
2017-07-18T04:48:05.232Z,105
2017-07-18T04:48:48.064Z,110
2017-07-18T04:49:32.341Z,110
2017-07-18T04:50:13.227Z,110
2017-07-18T04:50:59.200Z,110
2017-07-18T04:51:41.709Z,110
2017-07-18T04:52:28.055Z,110
2017-07-18T04:53:08.942Z,115
2017-07-18T04:53:51.721Z,115
2017-07-18T04:54:32.590Z,115
2017-07-18T04:55:15.200Z,115
2017-07-18T04:55:58.057Z,115
2017-07-18T04:56:40.849Z,115
2017-07-18T04:57:23.575Z,120
2017-07-18T04:58:04.471Z,120
2017-07-18T04:58:47.074Z,120
2017-07-18T04:59:29.519Z,120
2017-07-18T05:00:10.413Z,120
2017-07-18T05:00:55.060Z,125
2017-07-18T05:01:38.558Z,125
2017-07-18T05:02:19.449Z,125
2017-07-18T05:03:00.333Z,125
2017-07-18T05:03:41.231Z,125
2017-07-18T05:04:22.181Z,130
2017-07-18T05:05:03.073Z,130
2017-07-18T05:05:43.962Z,130
2017-07-18T05:06:24.846Z,130
2017-07-18T05:07:05.738Z,130
2017-07-18T05:07:46.619Z,135
2017-07-18T05:08:27.505Z,135
2017-07-18T05:09:08.395Z,135
2017-07-18T05:09:49.283Z,135
2017-07-18T05:10:30.174Z,135
2017-07-18T05:11:11.067Z,135
2017-07-18T05:11:51.953Z,140
2017-07-18T05:12:32.835Z,140
2017-07-18T05:13:13.715Z,140
2017-07-18T05:13:54.612Z,140
2017-07-18T05:14:35.501Z,145
2017-07-18T05:15:16.392Z,145
2017-07-18T05:15:57.291Z,145
2017-07-18T05:16:38.186Z,145
2017-07-18T05:17:19.083Z,145
2017-07-18T05:17:59.963Z,145
2017-07-18T05:18:40.844Z,145
2017-07-18T05:19:21.730Z,150
2017-07-18T05:20:02.626Z,150
2017-07-18T05:20:43.516Z,150
2017-07-18T05:21:24.424Z,150
2017-07-18T05:22:05.313Z,150
2017-07-18T05:22:46.200Z,150
2017-07-18T05:23:27.088Z,155
2017-07-18T05:24:07.988Z,155
2017-07-18T05:24:48.909Z,155
2017-07-18T05:25:29.800Z,155
2017-07-18T05:26:10.670Z,160
2017-07-18T05:26:51.563Z,160
2017-07-18T05:27:32.460Z,160
2017-07-18T05:29:27.084Z,160
2017-07-18T05:30:07.971Z,160
2017-07-18T05:30:48.852Z,160
2017-07-18T05:31:29.746Z,160
2017-07-18T05:32:10.636Z,165
2017-07-18T05:32:51.519Z,165
2017-07-18T05:33:32.409Z,165
2017-07-18T05:34:13.308Z,165
2017-07-18T05:34:54.196Z,165
2017-07-18T05:35:35.095Z,170
2017-07-18T05:36:15.971Z,170
2017-07-18T05:36:56.864Z,170
2017-07-18T05:37:37.768Z,170
2017-07-18T05:38:18.652Z,175
2017-07-18T05:38:59.548Z,175
2017-07-18T05:39:40.445Z,175
2017-07-18T05:40:21.336Z,175
2017-07-18T05:41:02.222Z,180
2017-07-18T05:41:43.111Z,180
2017-07-18T05:42:24.002Z,180
2017-07-18T05:43:04.905Z,180
2017-07-18T05:43:45.801Z,185
2017-07-18T05:44:26.693Z,185
2017-07-18T05:45:07.602Z,185
2017-07-18T05:45:48.496Z,190
2017-07-18T05:46:29.418Z,190
2017-07-18T05:47:10.296Z,190
2017-07-18T05:47:51.178Z,195
2017-07-18T05:48:32.139Z,195
2017-07-18T05:49:13.039Z,195
2017-07-18T05:49:53.912Z,195
2017-07-18T05:50:34.803Z,200
2017-07-18T05:51:15.681Z,200
2017-07-18T05:51:56.579Z,200
2017-07-18T05:52:37.490Z,205
2017-07-18T05:53:18.376Z,205
2017-07-18T05:53:59.273Z,205
2017-07-18T05:54:40.155Z,210
2017-07-18T05:55:21.042Z,210
2017-07-18T05:56:01.940Z,215
2017-07-18T05:56:42.829Z,215
2017-07-18T05:57:23.720Z,220
2017-07-18T05:58:04.617Z,220
2017-07-18T05:58:45.495Z,225
2017-07-18T05:59:26.379Z,225
2017-07-18T06:00:07.273Z,230
2017-07-18T06:00:48.156Z,235
2017-07-18T06:01:29.053Z,230
2017-07-18T06:02:09.951Z,235
2017-07-18T06:02:50.839Z,235
2017-07-18T06:03:31.730Z,240
2017-07-18T06:04:12.630Z,245
2017-07-18T06:04:53.527Z,250
2017-07-18T06:05:34.424Z,250
2017-07-18T06:06:15.327Z,255
2017-07-18T06:06:56.259Z,260
2017-07-18T06:07:37.126Z,265
2017-07-18T06:08:18.018Z,270
2017-07-18T06:08:58.930Z,275
2017-07-18T06:09:39.801Z,275
2017-07-18T06:10:20.691Z,280
2017-07-18T06:11:01.586Z,285
2017-07-18T06:11:42.478Z,295
2017-07-18T06:12:23.371Z,300
2017-07-18T06:13:04.252Z,305
2017-07-18T06:13:45.190Z,315
2017-07-18T06:14:26.068Z,320
2017-07-18T06:15:06.965Z,320
2017-07-18T06:15:47.855Z,330
2017-07-18T06:16:28.742Z,335
2017-07-18T06:17:09.636Z,345
2017-07-18T06:17:50.526Z,350
2017-07-18T06:18:31.414Z,350
2017-07-18T06:19:12.277Z,355
2017-07-18T06:19:53.175Z,360
2017-07-18T06:20:34.069Z,365
2017-07-18T06:21:14.960Z,370
2017-07-18T06:21:55.850Z,375
2017-07-18T06:22:36.749Z,380
2017-07-18T06:23:17.626Z,385
2017-07-18T06:23:58.524Z,390
2017-07-18T06:24:39.418Z,400
2017-07-18T06:25:20.315Z,415
2017-07-18T06:26:01.224Z,420
2017-07-18T06:26:42.147Z,430
2017-07-18T06:27:23.017Z,435
2017-07-18T06:28:03.918Z,450
2017-07-18T06:28:44.812Z,450
2017-07-18T06:29:25.699Z,455
2017-07-18T06:30:06.602Z,465
2017-07-18T06:30:47.494Z,470
2017-07-18T06:31:28.378Z,485
2017-07-18T06:32:09.266Z,495
2017-07-18T06:32:50.144Z,510
2017-07-18T06:33:31.028Z,535
2017-07-18T06:34:11.948Z,580
2017-07-18T06:34:52.830Z,735
2017-07-18T06:35:33.729Z,1055
2017-07-18T06:36:14.615Z,1420
2017-07-18T06:36:55.502Z,1720
2017-07-18T06:37:36.402Z,1840
2017-07-18T06:38:17.304Z,1825
2017-07-18T06:38:58.221Z,1775
2017-07-18T06:39:39.130Z,1685
2017-07-18T06:40:20.013Z,1665
2017-07-18T06:41:00.933Z,1725
2017-07-18T06:41:41.823Z,1805
2017-07-18T06:42:22.722Z,1860
2017-07-18T06:43:03.617Z,1855
2017-07-18T06:43:44.512Z,1790
2017-07-18T06:44:25.468Z,1740
2017-07-18T06:45:06.325Z,1730
2017-07-18T06:45:47.234Z,1700
2017-07-18T06:47:56.308Z,1540
2017-07-18T06:48:37.224Z,1580
2017-07-18T06:49:18.101Z,1635
2017-07-18T06:49:59.002Z,1690
2017-07-18T06:50:39.903Z,1810
2017-07-18T06:51:20.826Z,1880
2017-07-18T06:52:01.711Z,1865
2017-07-18T06:52:42.630Z,1850
2017-07-18T06:53:23.586Z,1810
2017-07-18T06:54:04.488Z,1795
2017-07-18T06:54:45.403Z,1810
2017-07-18T06:55:26.307Z,1765
2017-07-18T06:56:07.202Z,1750
2017-07-18T06:56:48.090Z,1785
2017-07-18T06:57:29.010Z,1815
2017-07-18T06:58:09.908Z,1840
2017-07-18T06:58:50.829Z,1865
2017-07-18T06:59:31.727Z,1890
2017-07-18T07:00:12.628Z,1930
2017-07-18T07:00:53.535Z,1955
2017-07-18T07:01:34.431Z,2000
2017-07-18T07:02:15.327Z,2040
2017-07-18T07:02:56.231Z,2095
2017-07-18T07:03:37.139Z,2160
2017-07-18T07:04:18.035Z,2225
2017-07-18T07:04:58.939Z,2245
2017-07-18T07:05:39.842Z,2245
2017-07-18T07:06:20.747Z,2205
2017-07-18T07:07:01.645Z,2125
2017-07-18T07:07:42.548Z,2030
2017-07-18T07:08:23.451Z,1980
2017-07-18T07:09:04.346Z,1935
2017-07-18T07:09:45.242Z,1930
2017-07-18T07:10:26.154Z,1970
2017-07-18T07:11:07.059Z,2025
2017-07-18T07:11:47.945Z,2120
2017-07-18T07:12:28.858Z,2185
2017-07-18T07:13:09.769Z,2215
2017-07-18T07:13:50.677Z,2225
2017-07-18T07:14:31.581Z,2170
2017-07-18T07:15:12.479Z,2115
2017-07-18T07:15:53.379Z,2060
2017-07-18T07:16:34.267Z,2075
2017-07-18T07:17:15.186Z,2085
2017-07-18T07:17:56.085Z,2075
2017-07-18T07:18:37.025Z,2055
2017-07-18T07:19:17.924Z,2030
2017-07-18T07:19:58.829Z,1950
2017-07-18T07:20:39.728Z,1960
2017-07-18T07:21:20.635Z,1925
2017-07-18T07:22:01.534Z,1830
2017-07-18T07:22:42.437Z,1810
2017-07-18T07:23:23.334Z,1885
2017-07-18T07:24:04.228Z,2035
2017-07-18T07:24:45.138Z,2225
2017-07-18T07:25:26.032Z,1590
2017-07-18T07:26:06.951Z,1900
2017-07-18T07:26:47.843Z,2455
2017-07-18T07:27:28.776Z,2310
2017-07-18T07:28:09.664Z,2195
2017-07-18T07:28:50.564Z,1580
2017-07-18T07:29:31.464Z,1675
2017-07-18T07:30:12.374Z,1060
2017-07-18T07:30:53.288Z,1910
2017-07-18T07:31:34.193Z,1970
2017-07-18T07:32:15.100Z,2300
2017-07-18T07:32:55.994Z,2305
2017-07-18T07:33:36.903Z,2340
2017-07-18T07:34:17.806Z,2430
2017-07-18T07:34:58.716Z,2545
2017-07-18T07:35:39.616Z,2590
2017-07-18T07:36:20.528Z,2715
2017-07-18T07:37:01.427Z,2450
2017-07-18T07:37:42.335Z,2080
2017-07-18T07:38:23.241Z,2280
2017-07-18T07:39:04.140Z,2540
2017-07-18T07:39:45.046Z,1585
2017-07-18T07:40:25.936Z,2540
2017-07-18T07:41:06.850Z,1760
2017-07-18T07:41:47.759Z,2135
2017-07-18T07:42:28.674Z,1645
2017-07-18T07:43:09.580Z,2175
2017-07-18T07:43:50.490Z,1960
2017-07-18T07:44:31.401Z,2620
2017-07-18T07:45:12.310Z,1360
2017-07-18T07:45:53.220Z,2230
2017-07-18T07:46:34.134Z,2605
2017-07-18T07:47:15.020Z,1980
2017-07-18T07:47:55.938Z,2445
2017-07-18T07:48:36.829Z,2520
2017-07-18T07:49:17.742Z,2560
2017-07-18T07:49:58.646Z,2540
2017-07-18T07:50:39.570Z,2205
2017-07-18T07:51:20.459Z,2350
2017-07-18T07:52:01.366Z,2385
2017-07-18T07:52:42.270Z,1225
2017-07-18T07:53:23.179Z,1580
2017-07-18T07:54:04.084Z,1600
2017-07-18T07:54:45.000Z,970
2017-07-18T07:55:25.903Z,915
2017-07-18T07:56:06.812Z,825
2017-07-18T07:56:47.732Z,885
2017-07-18T07:57:28.642Z,850
2017-07-18T07:58:09.565Z,825
2017-07-18T07:58:50.499Z,785
2017-07-18T07:59:31.368Z,800
2017-07-18T08:00:12.298Z,845
2017-07-18T08:00:53.205Z,825
2017-07-18T08:01:34.113Z,810
2017-07-18T08:02:15.023Z,805
2017-07-18T08:02:55.917Z,785
2017-07-18T08:03:36.819Z,825
2017-07-18T08:04:17.714Z,820
2017-07-18T08:04:58.618Z,800
2017-07-18T08:05:40.992Z,830
2017-07-18T08:06:21.960Z,930
2017-07-18T08:07:02.860Z,940
2017-07-18T08:07:43.784Z,865
2017-07-18T08:08:24.689Z,865
2017-07-18T08:09:05.603Z,825
2017-07-18T08:09:46.496Z,755
2017-07-18T08:10:27.429Z,695
2017-07-18T08:11:08.315Z,720
2017-07-18T08:11:49.231Z,695
2017-07-18T08:12:30.120Z,670
2017-07-18T08:13:11.032Z,680
2017-07-18T08:13:51.934Z,685
2017-07-18T08:14:32.847Z,655
2017-07-18T08:15:13.756Z,705
2017-07-18T08:15:54.668Z,780
2017-07-18T08:16:35.591Z,1150
2017-07-18T08:17:16.503Z,1670
2017-07-18T08:17:57.449Z,2105
2017-07-18T08:18:38.398Z,2110
2017-07-18T08:19:19.290Z,2005
2017-07-18T08:20:00.196Z,1725
2017-07-18T08:20:41.107Z,2115
2017-07-18T08:21:22.013Z,2420
2017-07-18T08:22:02.925Z,2525
2017-07-18T08:22:43.838Z,2575
2017-07-18T08:23:24.751Z,2385
2017-07-18T08:24:05.661Z,2740
2017-07-18T08:24:46.562Z,2890
2017-07-18T08:25:27.474Z,2880
2017-07-18T08:26:08.381Z,2800
2017-07-18T08:26:49.289Z,2980
2017-07-18T08:27:30.200Z,3025
2017-07-18T08:28:11.102Z,2970
2017-07-18T08:28:52.100Z,2860
2017-07-18T08:29:33.001Z,1235
2017-07-18T08:30:13.912Z,2975
2017-07-18T08:30:54.808Z,640
2017-07-18T08:31:35.699Z,655
2017-07-18T08:32:16.618Z,635
2017-07-18T08:32:57.523Z,955
2017-07-18T08:33:38.428Z,740
2017-07-18T08:34:19.331Z,1465
2017-07-18T08:35:00.227Z,1665
2017-07-18T08:35:41.126Z,865
2017-07-18T08:36:22.040Z,760
2017-07-18T08:37:02.951Z,2835
2017-07-18T08:37:43.854Z,2680
2017-07-18T08:38:24.762Z,2650
2017-07-18T08:39:05.671Z,2525
2017-07-18T08:39:46.575Z,2140
2017-07-18T08:40:27.475Z,835
2017-07-18T08:41:08.382Z,750
2017-07-18T08:41:49.288Z,755
2017-07-18T08:42:30.196Z,775
2017-07-18T08:43:11.104Z,815
2017-07-18T08:43:52.009Z,2005
2017-07-18T08:44:32.918Z,1320
2017-07-18T08:45:13.827Z,2955
2017-07-18T08:45:54.726Z,2050
2017-07-18T08:46:35.648Z,2670
2017-07-18T08:47:16.561Z,2775
2017-07-18T08:47:57.481Z,805
2017-07-18T08:48:38.369Z,965
2017-07-18T08:49:19.281Z,2740
2017-07-18T08:50:00.205Z,3130
2017-07-18T08:50:41.104Z,3170
2017-07-18T08:51:22.008Z,3190
2017-07-18T08:52:02.922Z,3050
2017-07-18T08:52:43.835Z,1335
2017-07-18T08:53:24.730Z,2805
2017-07-18T08:54:05.640Z,2465
2017-07-18T08:54:46.550Z,1005
2017-07-18T08:55:27.465Z,850
2017-07-18T08:56:08.380Z,2080
2017-07-18T08:56:49.283Z,815
2017-07-18T08:57:30.192Z,600
2017-07-18T08:58:11.099Z,555
2017-07-18T08:58:52.006Z,530
2017-07-18T08:59:32.913Z,535
2017-07-18T09:00:13.820Z,545
2017-07-18T09:00:54.729Z,525
2017-07-18T09:01:35.645Z,515
2017-07-18T09:02:16.554Z,500
2017-07-18T09:02:57.459Z,505
2017-07-18T09:03:38.367Z,525
2017-07-18T09:04:19.276Z,545
2017-07-18T09:05:00.176Z,635
2017-07-18T09:05:41.090Z,595
2017-07-18T09:06:21.985Z,550
2017-07-18T09:07:02.875Z,545
2017-07-18T09:07:43.777Z,555
2017-07-18T09:08:24.679Z,550
2017-07-18T09:09:05.569Z,550
2017-07-18T09:09:46.467Z,560
2017-07-18T09:10:27.365Z,580
2017-07-18T09:11:08.290Z,620
2017-07-18T09:11:49.216Z,595
2017-07-18T09:12:30.105Z,705
2017-07-18T09:13:11.002Z,1665
2017-07-18T09:13:51.899Z,2510
2017-07-18T09:14:32.784Z,2440
2017-07-18T09:15:13.695Z,2610
2017-07-18T09:15:54.631Z,2445
2017-07-18T09:16:35.527Z,2710
2017-07-18T09:17:16.427Z,3205
2017-07-18T09:17:57.329Z,3170
2017-07-18T09:18:38.240Z,3035
2017-07-18T09:19:19.138Z,2945
2017-07-18T09:20:00.038Z,2730
2017-07-18T09:20:40.941Z,915
2017-07-18T09:21:21.850Z,735
2017-07-18T09:22:02.763Z,1480
2017-07-18T09:22:43.669Z,1965
2017-07-18T09:23:24.565Z,2305
2017-07-18T09:24:05.478Z,840
2017-07-18T09:24:46.392Z,890
2017-07-18T09:25:27.308Z,1095
2017-07-18T09:26:08.209Z,2955
2017-07-18T09:26:49.148Z,2390
2017-07-18T09:28:42.810Z,3390
2017-07-18T09:29:23.713Z,3355
2017-07-18T09:30:04.636Z,3290
2017-07-18T09:30:45.540Z,3300
2017-07-18T09:31:26.442Z,3330
2017-07-18T09:32:07.355Z,3335
2017-07-18T09:32:48.253Z,3280
2017-07-18T09:33:29.153Z,3445
2017-07-18T09:34:10.059Z,3325
2017-07-18T09:34:50.960Z,3175
2017-07-18T09:35:31.877Z,3185
2017-07-18T09:36:12.780Z,3185
2017-07-18T09:36:53.698Z,3095
2017-07-18T09:37:34.597Z,2750
2017-07-18T09:38:15.509Z,2680
2017-07-18T09:38:56.427Z,2900
2017-07-18T09:39:37.341Z,3185
2017-07-18T09:40:18.242Z,3265
2017-07-18T09:40:59.150Z,3240